createdAt,value
2022-09-03T00:00:55.840Z,18.01
2022-09-03T00:03:28.328Z,18.19
2022-09-03T00:06:07.061Z,17.84
2022-09-03T00:08:40.875Z,17.71
2022-09-03T00:11:14.756Z,18.01
2022-09-03T00:13:46.398Z,18.09
2022-09-03T00:16:17.692Z,17.99
2022-09-03T00:18:49.803Z,17.92
2022-09-03T00:21:20.811Z,17.88
2022-09-03T00:23:50.205Z,17.96
2022-09-03T00:26:25.710Z,18.01
2022-09-03T00:28:59.856Z,17.72
2022-09-03T00:31:31.336Z,17.87
2022-09-03T00:34:03.398Z,17.69
2022-09-03T00:36:35.774Z,17.84
2022-09-03T00:39:03.797Z,17.51
2022-09-03T00:41:38.720Z,17.48
2022-09-03T00:44:31.419Z,17.51
2022-09-03T00:47:02.020Z,17.37
2022-09-03T00:49:38.726Z,17.56
2022-09-03T00:52:15.017Z,17.58
2022-09-03T00:54:47.981Z,17.49
2022-09-03T00:57:26.417Z,17.61
2022-09-03T01:00:01.072Z,17.57
2022-09-03T01:02:35.334Z,17.33
2022-09-03T01:05:09.551Z,17.33
2022-09-03T01:07:43.024Z,17.40
2022-09-03T01:10:19.149Z,17.39
2022-09-03T01:12:54.454Z,17.18
2022-09-03T01:15:28.278Z,17.11
2022-09-03T01:18:04.189Z,17.50
2022-09-03T01:20:39.799Z,17.38
2022-09-03T01:23:39.679Z,17.15
2022-09-03T01:26:29.558Z,17.13
2022-09-03T01:29:05.700Z,16.86
2022-09-03T01:31:37.216Z,16.57
2022-09-03T01:34:14.606Z,16.97
2022-09-03T01:36:47.961Z,17.20
2022-09-03T01:39:22.507Z,17.11
2022-09-03T01:42:20.434Z,16.93
2022-09-03T01:45:01.902Z,16.92
2022-09-03T01:47:38.192Z,17.07
2022-09-03T01:50:09.196Z,16.86
2022-09-03T01:52:45.656Z,16.95
2022-09-03T01:55:25.632Z,16.75
2022-09-03T01:57:57.208Z,16.75
2022-09-03T02:00:28.102Z,16.67
2022-09-03T02:02:56.122Z,16.59
2022-09-03T02:05:25.792Z,16.77
2022-09-03T02:07:58.470Z,16.56
2022-09-03T02:10:31.455Z,16.19
2022-09-03T02:13:02.320Z,16.34
2022-09-03T02:15:34.661Z,16.15
2022-09-03T02:18:05.443Z,16.19
2022-09-03T02:20:33.751Z,15.91
2022-09-03T02:23:01.888Z,16.05
2022-09-03T02:25:33.372Z,16.00
2022-09-03T02:28:01.958Z,16.08
2022-09-03T02:30:31.433Z,16.01
2022-09-03T02:33:00.297Z,15.94
2022-09-03T02:35:28.356Z,15.87
2022-09-03T02:37:56.759Z,15.81
2022-09-03T02:40:24.717Z,15.88
2022-09-03T02:42:53.287Z,15.66
2022-09-03T02:45:26.247Z,15.52
2022-09-03T02:47:57.600Z,15.66
2022-09-03T02:50:26.128Z,15.71
2022-09-03T02:52:54.364Z,15.70
2022-09-03T02:55:22.621Z,15.84
2022-09-03T02:57:50.611Z,16.03
2022-09-03T03:00:19.074Z,15.81
2022-09-03T03:02:47.103Z,15.49
2022-09-03T03:05:21.303Z,15.56
2022-09-03T03:07:49.410Z,15.50
2022-09-03T03:10:17.577Z,15.63
2022-09-03T03:12:45.535Z,15.38
2022-09-03T03:15:13.489Z,15.30
2022-09-03T03:17:41.428Z,15.44
2022-09-03T03:20:10.599Z,15.25
2022-09-03T03:22:39.922Z,15.10
2022-09-03T03:25:09.814Z,15.10
2022-09-03T03:27:42.314Z,15.14
2022-09-03T03:30:11.489Z,15.39
2022-09-03T03:32:39.961Z,15.23
2022-09-03T03:35:08.798Z,15.27
2022-09-03T03:37:36.823Z,15.27
2022-09-03T03:40:07.576Z,15.24
2022-09-03T03:42:35.749Z,15.04
2022-09-03T03:45:03.768Z,15.18
2022-09-03T03:47:32.270Z,15.07
2022-09-03T03:50:00.270Z,15.23
2022-09-03T03:52:28.501Z,15.06
2022-09-03T03:54:56.626Z,15.03
2022-09-03T03:57:26.121Z,15.11
2022-09-03T03:59:54.080Z,15.13
2022-09-03T04:02:22.100Z,15.28
2022-09-03T04:04:50.103Z,15.15
2022-09-03T04:07:18.039Z,15.10
2022-09-03T04:09:45.984Z,15.08
2022-09-03T04:12:13.922Z,15.08
2022-09-03T04:14:43.218Z,14.92
2022-09-03T04:17:11.183Z,14.91
2022-09-03T04:19:39.298Z,14.82
2022-09-03T04:22:07.257Z,14.78
2022-09-03T04:24:35.871Z,14.77
2022-09-03T04:27:04.159Z,14.86
2022-09-03T04:29:32.088Z,14.81
2022-09-03T04:32:19.912Z,14.96
2022-09-03T04:34:47.857Z,14.69
2022-09-03T04:37:16.581Z,14.69
2022-09-03T04:39:45.001Z,14.45
2022-09-03T04:42:12.994Z,14.86
2022-09-03T04:44:41.298Z,14.91
2022-09-03T04:47:10.647Z,14.82
2022-09-03T04:49:38.766Z,14.75
2022-09-03T04:52:06.776Z,14.87
2022-09-03T04:54:34.756Z,14.56
2022-09-03T04:57:02.745Z,14.54
2022-09-03T04:59:30.682Z,14.61
2022-09-03T05:01:58.680Z,14.69
2022-09-03T05:04:28.029Z,14.67
2022-09-03T05:06:55.951Z,14.82
2022-09-03T05:09:23.918Z,14.76
2022-09-03T05:11:51.866Z,14.64
2022-09-03T05:14:19.819Z,14.54
2022-09-03T05:16:53.091Z,14.48
2022-09-03T05:19:22.326Z,14.28
2022-09-03T05:21:51.643Z,14.53
2022-09-03T05:24:19.620Z,14.57
2022-09-03T05:26:48.922Z,14.45
2022-09-03T05:29:17.141Z,14.44
2022-09-03T05:31:45.171Z,14.43
2022-09-03T05:34:16.671Z,14.49
2022-09-03T05:36:49.159Z,14.40
2022-09-03T05:39:18.504Z,14.31
2022-09-03T05:41:46.488Z,14.37
2022-09-03T05:44:14.655Z,14.24
2022-09-03T05:46:42.598Z,14.43
2022-09-03T05:49:11.724Z,14.60
2022-09-03T05:51:40.610Z,14.34
2022-09-03T05:54:09.329Z,14.47
2022-09-03T05:56:41.328Z,14.73
2022-09-03T05:59:11.157Z,14.59
2022-09-03T06:01:40.941Z,14.83
2022-09-03T06:04:14.907Z,14.81
2022-09-03T06:06:44.803Z,14.73
2022-09-03T06:09:13.791Z,14.98
2022-09-03T06:11:43.211Z,15.13
2022-09-03T06:14:13.281Z,15.22
2022-09-03T06:16:42.385Z,15.04
2022-09-03T06:19:11.303Z,15.31
2022-09-03T06:21:40.587Z,15.36
2022-09-03T06:24:08.763Z,15.48
2022-09-03T06:26:37.434Z,15.56
2022-09-03T06:29:08.246Z,15.44
2022-09-03T06:31:36.896Z,15.62
2022-09-03T06:34:06.034Z,15.88
2022-09-03T06:36:34.573Z,15.88
2022-09-03T06:39:02.700Z,16.07
2022-09-03T06:41:33.167Z,16.14
2022-09-03T06:44:03.482Z,16.13
2022-09-03T06:46:35.143Z,16.15
2022-09-03T06:49:03.461Z,16.35
2022-09-03T06:51:33.061Z,16.37
2022-09-03T06:54:02.126Z,16.53
2022-09-03T06:56:41.416Z,16.52
2022-09-03T06:59:11.015Z,16.54
2022-09-03T07:01:44.243Z,16.79
2022-09-03T07:04:13.614Z,16.83
2022-09-03T07:06:43.013Z,16.95
2022-09-03T07:09:12.733Z,17.07
2022-09-03T07:11:47.479Z,17.06
2022-09-03T07:14:16.753Z,17.04
2022-09-03T07:16:46.502Z,17.12
2022-09-03T07:19:14.849Z,17.30
2022-09-03T07:21:48.351Z,17.42
2022-09-03T07:24:18.226Z,17.63
2022-09-03T07:26:47.098Z,17.44
2022-09-03T07:29:16.252Z,17.65
2022-09-03T07:31:45.621Z,17.82
2022-09-03T07:34:16.468Z,17.64
2022-09-03T07:36:48.755Z,17.83
2022-09-03T07:39:18.043Z,18.02
2022-09-03T07:41:46.913Z,18.03
2022-09-03T07:44:16.314Z,18.13
2022-09-03T07:46:47.824Z,18.13
2022-09-03T07:49:16.180Z,18.19
2022-09-03T07:51:46.548Z,18.41
2022-09-03T07:54:14.624Z,18.35
2022-09-03T07:56:42.765Z,18.30
2022-09-03T07:59:12.112Z,18.55
2022-09-03T08:01:41.461Z,18.48
2022-09-03T08:04:11.823Z,18.54
2022-09-03T08:06:40.406Z,18.76
2022-09-03T08:09:11.515Z,18.76
2022-09-03T08:11:41.006Z,18.81
2022-09-03T08:14:10.535Z,18.94
2022-09-03T08:16:40.068Z,18.96
2022-09-03T08:19:13.362Z,19.08
2022-09-03T08:21:42.714Z,19.14
2022-09-03T08:24:11.715Z,19.25
2022-09-03T08:26:41.753Z,19.30
2022-09-03T08:29:10.507Z,19.35
2022-09-03T08:31:39.085Z,19.40
2022-09-03T08:34:08.731Z,19.46
2022-09-03T08:36:39.387Z,19.55
2022-09-03T08:39:10.343Z,19.61
2022-09-03T08:41:57.994Z,19.69
2022-09-03T08:44:29.180Z,19.80
2022-09-03T08:47:01.193Z,19.90
2022-09-03T08:49:33.875Z,20.12
2022-09-03T08:52:06.122Z,20.24
2022-09-03T08:54:34.373Z,20.35
2022-09-03T08:57:04.115Z,20.46
2022-09-03T08:59:32.800Z,20.33
2022-09-03T09:02:10.529Z,20.24
2022-09-03T09:04:49.145Z,20.14
2022-09-03T09:07:23.344Z,20.21
2022-09-03T09:09:55.641Z,20.43
2022-09-03T09:12:42.526Z,20.62
2022-09-03T09:15:21.232Z,20.76
2022-09-03T09:18:02.533Z,20.93
2022-09-03T09:20:35.210Z,21.12
2022-09-03T09:23:06.741Z,21.20
2022-09-03T09:25:41.822Z,21.33
2022-09-03T09:28:15.239Z,21.33
2022-09-03T09:30:43.660Z,21.39
2022-09-03T09:33:11.770Z,21.53
2022-09-03T09:35:42.403Z,21.56
2022-09-03T09:38:16.341Z,21.69
2022-09-03T09:40:46.224Z,21.71
2022-09-03T09:43:16.138Z,21.92
2022-09-03T09:45:45.918Z,21.99
2022-09-03T09:48:26.424Z,22.03
2022-09-03T09:51:06.367Z,22.13
2022-09-03T09:53:36.400Z,22.17
2022-09-03T09:56:05.084Z,22.35
2022-09-03T09:58:34.548Z,22.49
2022-09-03T10:01:05.329Z,22.53
2022-09-03T10:03:35.633Z,22.77
2022-09-03T10:06:26.919Z,22.90
2022-09-03T10:09:08.204Z,22.88
2022-09-03T10:11:40.374Z,22.83
2022-09-03T10:14:12.834Z,22.75
2022-09-03T10:16:49.008Z,22.58
2022-09-03T10:19:22.412Z,22.99
2022-09-03T10:21:56.629Z,22.99
2022-09-03T10:24:39.499Z,23.22
2022-09-03T10:27:11.340Z,23.12
2022-09-03T10:29:40.779Z,23.32
2022-09-03T10:32:24.157Z,22.99
2022-09-03T10:35:03.861Z,23.00
2022-09-03T10:37:41.117Z,23.33
2022-09-03T10:40:31.154Z,23.36
2022-09-03T10:43:12.236Z,23.40
2022-09-03T10:45:45.637Z,23.65
2022-09-03T10:48:40.266Z,23.67
2022-09-03T10:51:14.289Z,23.80
2022-09-03T10:53:53.563Z,23.64
2022-09-03T10:56:26.636Z,23.82
2022-09-03T10:59:18.405Z,24.10
2022-09-03T11:01:54.026Z,24.16
2022-09-03T11:04:29.020Z,24.25
2022-09-03T11:07:02.256Z,24.38
2022-09-03T11:09:35.006Z,24.72
2022-09-03T11:12:07.672Z,24.90
2022-09-03T11:14:38.939Z,24.64
2022-09-03T11:17:11.675Z,24.75
2022-09-03T11:19:48.297Z,24.28
2022-09-03T11:22:20.785Z,24.52
2022-09-03T11:24:58.657Z,24.56
2022-09-03T11:27:35.307Z,24.82
2022-09-03T11:30:07.230Z,25.05
2022-09-03T11:32:48.691Z,24.86
2022-09-03T11:35:27.957Z,23.74
2022-09-03T11:38:00.381Z,24.68
2022-09-03T11:40:33.922Z,25.20
2022-09-03T11:43:13.986Z,24.40
2022-09-03T11:45:42.311Z,25.51
2022-09-03T11:48:30.662Z,25.68
2022-09-03T11:50:59.043Z,25.66
2022-09-03T11:53:30.210Z,25.68
2022-09-03T11:56:02.241Z,25.73
2022-09-03T11:58:32.948Z,25.85
2022-09-03T12:01:02.776Z,25.53
2022-09-03T12:03:39.776Z,25.82
2022-09-03T12:06:33.419Z,26.36
2022-09-03T12:09:17.548Z,26.33
2022-09-03T12:11:54.472Z,26.21
2022-09-03T12:14:29.330Z,25.85
2022-09-03T12:17:15.993Z,25.38
2022-09-03T12:19:49.017Z,26.15
2022-09-03T12:22:18.224Z,26.06
2022-09-03T12:24:46.375Z,25.58
2022-09-03T12:27:24.756Z,25.68
2022-09-03T12:30:00.059Z,26.12
2022-09-03T12:32:32.299Z,25.01
2022-09-03T12:35:11.094Z,25.37
2022-09-03T12:40:29.879Z,26.12
2022-09-03T12:46:11.243Z,26.58
2022-09-03T12:48:43.531Z,26.57
2022-09-03T12:54:00.971Z,26.95
2022-09-03T12:56:33.310Z,25.90
2022-09-03T12:59:04.265Z,25.91
2022-09-03T13:01:36.650Z,26.53
2022-09-03T13:04:08.017Z,26.35
2022-09-03T13:06:47.124Z,26.55
2022-09-03T13:09:15.905Z,26.19
2022-09-03T13:11:45.272Z,26.70
2022-09-03T13:14:14.412Z,26.60
2022-09-03T13:16:58.529Z,26.73
2022-09-03T13:19:32.159Z,26.54
2022-09-03T13:22:08.459Z,25.27
2022-09-03T13:24:47.755Z,24.76
2022-09-03T13:27:21.739Z,26.39
2022-09-03T13:30:03.055Z,26.84
2022-09-03T13:32:40.740Z,27.20
2022-09-03T13:35:13.079Z,26.75
2022-09-03T13:37:44.452Z,25.00
2022-09-03T13:40:17.754Z,26.75
2022-09-03T13:42:54.438Z,27.33
2022-09-03T13:45:31.614Z,28.01
2022-09-03T13:48:24.150Z,27.95
2022-09-03T13:50:59.566Z,27.72
2022-09-03T13:53:37.326Z,28.04
2022-09-03T13:56:10.209Z,27.67
2022-09-03T13:58:44.980Z,27.12
2022-09-03T14:01:20.364Z,27.46
2022-09-03T14:03:51.757Z,27.53
2022-09-03T14:06:27.605Z,26.94
2022-09-03T14:09:13.412Z,27.52
2022-09-03T14:11:50.697Z,27.81
2022-09-03T14:14:25.518Z,27.87
2022-09-03T14:16:58.117Z,27.48
2022-09-03T14:19:36.326Z,27.31
2022-09-03T14:22:09.668Z,26.92
2022-09-03T14:24:45.171Z,27.64
2022-09-03T14:27:13.220Z,28.07
2022-09-03T14:29:52.541Z,27.83
2022-09-03T14:32:28.553Z,27.79
2022-09-03T14:35:30.171Z,28.58
2022-09-03T14:38:26.142Z,28.10
2022-09-03T14:40:59.516Z,28.03
2022-09-03T14:43:53.477Z,28.22
2022-09-03T14:46:33.541Z,28.40
2022-09-03T14:49:19.131Z,28.59
2022-09-03T14:52:01.352Z,28.01
2022-09-03T14:54:52.123Z,28.38
2022-09-03T14:57:33.610Z,27.66
2022-09-03T15:00:08.056Z,27.37
2022-09-03T15:02:55.819Z,28.34
2022-09-03T15:05:38.845Z,27.90
2022-09-03T15:08:11.804Z,28.39
2022-09-03T15:10:47.142Z,28.36
2022-09-03T15:13:19.963Z,27.72
2022-09-03T15:16:01.551Z,28.61
2022-09-03T15:18:34.464Z,28.54
2022-09-03T15:21:08.255Z,28.25
2022-09-03T15:23:55.475Z,28.71
2022-09-03T15:26:35.635Z,28.21
2022-09-03T15:29:18.700Z,27.63
2022-09-03T15:31:51.888Z,28.51
2022-09-03T15:34:41.535Z,27.54
2022-09-03T15:37:13.620Z,28.47
2022-09-03T15:39:44.523Z,28.34
2022-09-03T15:42:19.603Z,28.82
2022-09-03T15:44:52.664Z,28.75
2022-09-03T15:47:37.619Z,28.47
2022-09-03T15:50:28.848Z,27.54
2022-09-03T15:53:00.343Z,27.91
2022-09-03T15:55:34.135Z,28.40
2022-09-03T15:58:10.785Z,28.92
2022-09-03T16:01:00.113Z,29.34
2022-09-03T16:03:44.647Z,29.23
2022-09-03T16:06:21.914Z,29.24
2022-09-03T16:08:54.200Z,29.77
2022-09-03T16:11:33.658Z,29.74
2022-09-03T16:14:08.429Z,29.40
2022-09-03T16:16:49.290Z,29.77
2022-09-03T16:19:21.278Z,29.64
2022-09-03T16:21:56.326Z,29.83
2022-09-03T16:24:27.545Z,29.50
2022-09-03T16:26:57.886Z,30.09
2022-09-03T16:29:31.986Z,30.25
2022-09-03T16:32:12.674Z,29.45
2022-09-03T16:34:50.287Z,29.29
2022-09-03T16:37:23.978Z,28.88
2022-09-03T16:39:58.948Z,28.75
2022-09-03T16:42:30.664Z,29.49
2022-09-03T16:45:14.795Z,28.41
2022-09-03T16:48:01.334Z,28.98
2022-09-03T16:50:41.856Z,29.10
2022-09-03T16:53:15.778Z,28.72
2022-09-03T16:56:04.454Z,28.78
2022-09-03T16:58:38.525Z,27.64
2022-09-03T17:01:18.396Z,27.87
2022-09-03T17:04:01.981Z,28.21
2022-09-03T17:06:54.429Z,28.51
2022-09-03T17:09:32.501Z,28.01
2022-09-03T17:12:05.476Z,28.10
2022-09-03T17:15:00.721Z,27.87
2022-09-03T17:17:50.925Z,27.37
2022-09-03T17:20:22.520Z,27.73
2022-09-03T17:23:01.514Z,27.39
2022-09-03T17:25:35.634Z,26.74
2022-09-03T17:28:22.685Z,26.41
2022-09-03T17:30:58.115Z,26.20
2022-09-03T17:33:44.869Z,26.08
2022-09-03T17:36:14.638Z,26.08
2022-09-03T17:39:09.967Z,25.64
2022-09-03T17:41:43.873Z,25.34
2022-09-03T17:44:18.717Z,25.20
2022-09-03T17:46:50.392Z,25.01
2022-09-03T17:49:23.262Z,24.30
2022-09-03T17:51:54.844Z,24.54
2022-09-03T17:54:33.322Z,24.41
2022-09-03T17:57:04.947Z,24.02
2022-09-03T17:59:37.834Z,23.46
2022-09-03T18:02:11.621Z,23.85
2022-09-03T18:04:48.044Z,23.66
2022-09-03T18:07:24.095Z,23.90
2022-09-03T18:10:00.641Z,23.63
2022-09-03T18:12:34.796Z,23.76
2022-09-03T18:15:09.214Z,23.44
2022-09-03T18:17:42.967Z,22.90
2022-09-03T18:20:33.060Z,23.06
2022-09-03T18:23:22.912Z,22.46
2022-09-03T18:26:13.088Z,22.96
2022-09-03T18:29:03.425Z,22.67
2022-09-03T18:31:48.993Z,22.71
2022-09-03T18:34:35.077Z,22.46
2022-09-03T18:37:22.082Z,22.56
2022-09-03T18:40:07.344Z,22.46
2022-09-03T18:43:03.186Z,22.11
2022-09-03T18:46:38.584Z,22.36
2022-09-03T18:49:08.651Z,22.48
2022-09-03T18:52:01.282Z,21.96
2022-09-03T18:55:07.396Z,21.69
2022-09-03T18:58:02.765Z,22.08
2022-09-03T19:00:49.269Z,21.77
2022-09-03T19:03:55.469Z,21.96
2022-09-03T19:06:46.548Z,22.04
2022-09-03T19:09:38.622Z,21.73
2022-09-03T19:12:34.099Z,21.20
2022-09-03T19:15:24.969Z,21.16
2022-09-03T19:18:24.276Z,21.41
2022-09-03T19:21:17.601Z,21.16
2022-09-03T19:24:02.791Z,21.02
2022-09-03T19:26:58.933Z,20.41
2022-09-03T19:30:02.790Z,20.64
2022-09-03T19:32:53.991Z,20.74
2022-09-03T19:35:42.376Z,20.67
2022-09-03T19:38:34.747Z,20.30
2022-09-03T19:41:27.388Z,20.44
2022-09-03T19:44:21.469Z,20.37
2022-09-03T19:47:09.434Z,20.37
2022-09-03T19:50:03.348Z,20.21
2022-09-03T19:52:53.211Z,20.20
2022-09-03T19:55:41.895Z,20.47
2022-09-03T19:58:42.638Z,20.12
2022-09-03T20:01:29.253Z,20.31
2022-09-03T20:04:19.189Z,20.01
2022-09-03T20:07:05.304Z,20.00
2022-09-03T20:09:55.325Z,19.63
2022-09-03T20:12:26.062Z,19.42
2022-09-03T20:14:54.065Z,19.68
2022-09-03T20:17:32.147Z,19.77
2022-09-03T20:20:08.839Z,19.75
2022-09-03T20:22:42.740Z,19.58
2022-09-03T20:25:27.211Z,19.60
2022-09-03T20:28:04.299Z,19.42
2022-09-03T20:30:35.962Z,19.61
2022-09-03T20:33:33.254Z,19.25
2022-09-03T20:36:10.518Z,19.16
2022-09-03T20:38:56.473Z,19.12
2022-09-03T20:41:29.486Z,19.24
2022-09-03T20:44:11.901Z,19.26
2022-09-03T20:46:51.819Z,18.95
2022-09-03T20:49:25.414Z,18.94
2022-09-03T20:51:58.884Z,19.27
2022-09-03T20:54:32.184Z,19.15
2022-09-03T20:57:19.749Z,18.82
2022-09-03T21:00:00.193Z,19.14
2022-09-03T21:02:35.208Z,19.18
2022-09-03T21:05:09.663Z,18.51
2022-09-03T21:07:49.356Z,18.95
2022-09-03T21:10:22.064Z,18.79
2022-09-03T21:12:57.237Z,18.80
2022-09-03T21:15:31.794Z,18.85
2022-09-03T21:18:06.181Z,18.72
2022-09-03T21:20:39.247Z,18.55
2022-09-03T21:23:15.322Z,18.38
2022-09-03T21:25:46.278Z,18.88
2022-09-03T21:28:16.991Z,18.54
2022-09-03T21:30:49.568Z,18.71
2022-09-03T21:33:21.365Z,18.62
2022-09-03T21:35:52.847Z,18.88
2022-09-03T21:38:23.721Z,18.59
2022-09-03T21:40:56.410Z,18.74
2022-09-03T21:43:26.481Z,18.62
2022-09-03T21:46:03.191Z,18.60
2022-09-03T21:48:35.744Z,18.60
2022-09-03T21:51:07.743Z,18.14
2022-09-03T21:53:43.235Z,18.50
2022-09-03T21:56:40.657Z,18.44
2022-09-03T21:59:16.287Z,18.23
2022-09-03T22:01:53.193Z,18.51
2022-09-03T22:04:21.177Z,18.37
2022-09-03T22:06:52.966Z,18.19
2022-09-03T22:09:26.393Z,18.20
2022-09-03T22:12:00.639Z,18.24
2022-09-03T22:14:33.874Z,18.07
2022-09-03T22:17:08.927Z,17.86
2022-09-03T22:19:37.649Z,18.02
2022-09-03T22:22:10.801Z,18.24
2022-09-03T22:24:44.265Z,17.96
2022-09-03T22:27:19.463Z,18.27
2022-09-03T22:29:53.144Z,17.86
2022-09-03T22:32:33.641Z,17.93
2022-09-03T22:35:26.001Z,18.20
2022-09-03T22:38:04.175Z,17.91
2022-09-03T22:40:39.973Z,18.10
2022-09-03T22:43:23.106Z,18.01
2022-09-03T22:46:11.683Z,18.22
2022-09-03T22:48:55.187Z,17.76
2022-09-03T22:51:23.169Z,17.63
2022-09-03T22:54:10.246Z,17.66
2022-09-03T22:56:41.958Z,17.88
2022-09-03T22:59:14.307Z,17.80
2022-09-03T23:01:46.143Z,17.69
2022-09-03T23:04:17.821Z,17.63
2022-09-03T23:06:53.396Z,17.82
2022-09-03T23:09:24.216Z,17.61
2022-09-03T23:11:56.696Z,17.57
2022-09-03T23:14:28.707Z,17.60
2022-09-03T23:16:59.253Z,17.56
2022-09-03T23:19:41.084Z,17.62
2022-09-03T23:22:12.394Z,17.65
2022-09-03T23:24:43.259Z,17.54
2022-09-03T23:27:16.302Z,17.52
2022-09-03T23:29:47.949Z,17.39
2022-09-03T23:32:16.065Z,17.45
2022-09-03T23:34:43.989Z,17.16
2022-09-03T23:37:39.550Z,17.41
2022-09-03T23:40:26.212Z,17.33
2022-09-03T23:43:28.678Z,17.00
2022-09-03T23:46:01.564Z,16.98
2022-09-03T23:48:39.591Z,17.10
2022-09-03T23:51:13.828Z,17.08
2022-09-03T23:53:48.493Z,17.20
2022-09-03T23:56:51.485Z,16.93
2022-09-03T23:59:28.535Z,17.12
